Datum       Außentemperatur Tagesdurchschnitt Außenfeuchte Tagesdurchschnitt Taupunkt Tagesdurchschnitt Windchill Tagesdurchschnitt Windgeschwindigkeit Tagesdurchschnitt Gesamtregen Mindesttemperatur Höchsttemperatur Höchste Windgeschwindigkeit  Tägliche Niederschlagsmenge 
                         
                         
max min mittel °C % °C °C km/h mm/m² °C °C km/h mm/m²
1.1.10 1000,9 991,2 994,3 -1,7 92,3 -2,8 -1,8 1,0 0,9 -3,8 3,5 10,0 0,9
2.1.10 1018,2 1001,0 1010,4 -3,9 89,1 -5,4 -4,4 2,6 0,0 -5,7 -1,9 19,0 0,0
3.1.10 1018,1 1015,1 1016,2 -3,5 90,6 -4,8 -3,6 1,2 0,0 -5,1 -2,4 8,6 0,0
4.1.10 1017,0 1012,1 1014,1 -6,3 89,9 -7,6 -6,3 0,4 0,0 -9,5 -2,0 16,5 0,0
5.1.10 1012,0 1001,8 1006,7 -7,5 87,8 -9,1 -8,0 2,9 0,0 -9,3 -4,2 15,4 0,0
6.1.10 1004,2 999,8 1001,5 -7,0 86,9 -8,7 -7,3 1,5 0,0 -8,1 -5,1 15,8 0,0
7.1.10 1013,6 1004,2 1008,1 -8,1 86,0 -10,0 -8,3 1,2 0,0 -11,1 -4,2 17,6 0,0
8.1.10 1014,1 1010,0 1012,5 -7,0 88,5 -8,5 -8,1 3,1 0,0 -9,8 -4,9 22,6 0,0
9.1.10 1010,2 1006,4 1007,8 -5,9 89,7 -7,3 -7,7 5,8 0,0 -6,9 -4,5 19,8 0,0
10.1.10 1013,8 1006,2 1009,7 -5,0 90,8 -6,2 -5,1 0,8 0,0 -5,9 -3,7 14,7 0,0
11.1.10 1017,1 1012,2 1014,0 -6,1 90,2 -7,4 -6,1 0,3 0,0 -6,7 -5,5 7,5 0,0
12.1.10 1017,0 1011,7 1014,9 -6,1 87,8 -7,8 -7,0 3,8 0,0 -7,8 -3,9 16,5 0,0
13.1.10 1011,8 1008,1 1009,4 -6,0 89,7 -7,4 -8,6 7,1 0,0 -8,9 -4,2 22,6 0,0
14.1.10 1014,0 1008,6 1010,2 -3,6 90,6 -4,9 -5,9 7,1 0,0 -4,7 -1,6 21,9 0,0
15.1.10 1025,2 1013,8 1020,1 -2,9 89,1 -4,5 -3,6 3,2 0,0 -4,1 -2,2 23,7 0,0
16.1.10 1025,7 1014,3 1020,9 -3,5 88,6 -5,0 -6,1 7,5 0,0 -4,4 -2,6 23,0 0,0
17.1.10 1020,0 1010,8 1013,4 -0,9 92,5 -2,0 -1,7 3,6 1,0 -3,2 1,6 14,7 1,0
18.1.10 1025,1 1019,9 1022,6 1,4 92,5 0,3 0,9 3,3 7,3 0,9 2,4 23,4 6,3
19.1.10 1024,2 1018,5 1020,5 0,8 93,9 -0,1 0,8 1,2 11,7 0,4 1,6 12,6 4,4
20.1.10 1018,7 1014,5 1016,4 0,6 91,2 -0,6 0,5 1,7 14,2 -1,2 1,9 15,8 2,5
21.1.10 1024,5 1016,2 1020,4 -4,1 90,2 -5,5 -4,2 0,6 14,2 -7,1 -1,0 16,2 0,0
22.1.10 1026,2 1023,1 1024,6 -6,5 89,6 -7,9 -7,1 3,2 14,2 -7,6 -5,6 19,8 0,0
23.1.10 1026,1 1022,4 1023,8 -6,8 91,3 -8,0 -7,8 4,5 15,1 -7,9 -5,4 15,1 0,0
24.1.10 1024,4 1022,4 1023,4 -7,2 88,9 -8,7 -9,6 7,0 15,1 -8,5 -6,2 22,3 0,0
25.1.10 1028,7 1023,2 1025,5 -6,7 86,5 -8,6 -8,8 6,4 15,1 -7,6 -5,2 27,7 0,0
26.1.10 1035,1 1028,2 1031,6 -9,1 87,2 -10,8 -9,2 1,5 15,1 -13,6 -6,4 17,2 0,0
27.1.10 1034,5 1008,8 1024,7 -10,9 81,2 -13,6 -11,6 1,9 15,1 -17,4 -4,8 28,4 0,0
28.1.10 1008,2 997,9 1001,2 -3,4 91,1 -4,6 -7,4 10,4 15,1 -7,0 -1,0 37,4 0,0
29.1.10 998,0 981,8 990,4 -1,1 89,6 -2,5 -2,7 6,0 15,1 -2,3 -0,1 32,8 0,0
30.1.10 998,4 981,6 989,6 -2,3 89,3 -3,8 -3,2 3,8 15,1 -5,3 -0,1 32,7 0,0
31.1.10 1007,4 998,3 1002,9 -5,1 86,6 -7,0 -5,5 2,6 15,6 -8,5 -1,1 32,4 0,5
1.2.10 1010,7 1006,0 1008,0 -3,4 89,8 -4,9 -4,0 3,0 15,6 -4,1 -1,9 24,1 0,0
2.2.10 1013,9 1002,5 1010,2 -2,7 88,2 -4,4 -5,4 7,7 15,6 -6,6 -0,6 39,9 0,0
3.2.10 1015,5 998,9 1006,4 -0,8 90,8 -2,1 -1,6 3,4 17,6 -7,7 4,6 25,2 2,0
4.2.10 1016,3 1014,1 1015,3 -2,3 93,5 -3,1 -2,9 3,7 17,6 -9,9 1,0 20,3 0,0
5.2.10 1014,2 1008,3 1010,5 -2,3 91,2 -3,5 -5,0 8,3 17,6 -2,9 -0,1 35,6 0,0
6.2.10 1016,3 1009,2 1012,0 -0,7 92,2 -1,7 -0,8 1,6 17,6 -2,2 1,3 27,3 0,0
7.2.10 1020,0 1016,2 1018,0 -4,2 91,4 -5,3 -4,6 2,6 17,6 -7,0 -0,1 21,2 0,0
8.2.10 1017,3 1007,2 1011,5 -6,6 84,8 -8,7 -7,0 3,1 17,6 -10,1 -1,7 10,8 0,0
9.2.10 1007,2 1002,7 1004,3 -8,8 85,2 -10,8 -10,4 5,6 17,6 -9,8 -6,7 24,1 0,0
10.2.10 1006,8 1002,2 1004,3 -7,2 85,8 -9,2 -7,2 0,7 17,6 -9,2 -4,5 16,4 0,0
11.2.10 1007,9 1004,0 1005,5 -7,0 89,2 -8,5 -8,4 4,6 17,6 -8,1 -4,9 30,6 0,0
12.2.10 1012,9 1006,8 1009,6 -4,7 90,3 -6,0 -4,9 1,4 17,6 -7,7 -2,2 20,1 0,0
13.2.10 1013,3 1011,3 1012,4 -4,4 87,2 -6,2 -4,4 0,6 17,6 -5,9 -1,1 10,8 0,0
14.2.10 1012,9 1010,4 1011,6 -4,8 85,8 -6,8 -4,8 0,7 17,6 -6,6 -2,0 15,8 0,0
15.2.10 1010,3 1006,5 1008,6 -5,1 84,9 -7,2 -5,3 2,6 17,6 -6,0 -4,2 16,8 0,0
16.2.10 1006,7 1002,1 1004,4 -5,5 83,9 -7,7 -5,9 3,2 17,8 -7,0 -2,8 13,3 0,2
17.2.10 1002,0 997,1 998,8 -5,1 87,0 -6,9 -7,5 7,1 17,8 -8,2 -1,2 39,9 0,0
18.2.10 1003,0 996,3 999,2 -0,4 91,3 -1,7 -1,1 3,9 25,4 -3,4 2,4 25,2 7,6
19.2.10 1002,4 991,2 995,9 1,9 92,6 0,8 1,7 2,4 40,3 0,5 4,1 20,5 14,9
20.2.10 1001,3 994,7 998,4 0,3 85,3 -1,9 -0,5 3,9 43,5 -2,9 3,6 30,9 3,2
21.2.10 1003,3 1001,2 1002,1 -0,7 89,0 -2,3 -1,2 2,8 44,3 -2,8 1,9 27,3 0,8
22.2.10 1002,0 995,2 997,6 0,6 87,2 -1,3 -0,3 4,1 49,7 -3,2 3,5 24,8 5,4
23.2.10 999,7 993,2 996,0 5,2 82,3 2,3 4,2 4,9 52,9 3,0 7,6 28,0 3,2
24.2.10 1005,0 999,0 1001,9 5,2 92,4 4,0 5,1 1,7 52,9 2,6 7,1 21,6 0,0
25.2.10 1004,9 999,4 1002,5 5,4 80,0 2,0 4,7 4,3 53,2 1,3 11,0 28,0 0,3
26.2.10 1002,0 993,7 996,0 5,1 83,8 2,5 4,4 4,8 55,0 1,7 8,9 43,5 1,8
27.2.10 1007,6 1001,0 1005,3 4,2 72,7 -0,5 3,1 4,9 55,0 0,5 12,3 35,2 0,0
28.2.10 1000,9 991,1 994,6 5,6 66,5 -0,3 3,2 8,9 56,2 1,3 11,3 42,3 1,2
1.3.10 1013,6 997,5 1006,1 3,1 57,8 -4,5 0,0 9,8 57,6 0,1 6,1 50,7 1,4
2.3.10 1021,7 1013,7 1017,7 -0,4 55,9 -8,9 -1,1 3,0 57,6 -5,4 5,7 26,2 0,0
3.3.10 1022,2 1016,9 1020,3 -0,3 47,0 -11,9 -0,6 2,1 57,6 -6,5 9,4 19,4 0,0
4.3.10 1017,8 1013,4 1015,1 -2,7 53,4 -11,3 -3,4 3,3 57,6 -6,3 3,8 27,0 0,0
5.3.10 1020,8 1015,5 1018,8 -5,2 43,2 -17,3 -6,6 4,6 57,6 -8,2 0,4 25,9 0,0
6.3.10 1024,2 1008,1 1014,4 -5,6 64,3 -11,3 -7,2 5,0 57,6 -12,8 -0,1 30,9 0,0
7.3.10 1029,5 1024,4 1027,6 -9,7 52,5 -18,1 -10,0 1,7 58,0 -16,6 0,1 17,6 0,4
8.3.10 1027,1 1021,1 1023,6 -5,9 51,5 -14,9 -6,8 3,1 59,9 -12,0 2,3 24,4 1,9
9.3.10 1025,0 1021,0 1022,7 -7,0 39,4 -20,1 -8,1 3,6 60,4 -15,9 2,8 30,2 0,5
10.3.10 1024,6 1016,9 1021,0 -3,8 25,4 -21,7 -4,7 3,6 60,4 -12,4 4,3 36,3 0,0
11.3.10 1016,7 1012,9 1014,4 -3,9 44,1 -15,2 -4,9 4,0 60,4 -6,7 2,2 25,2 0,0
12.3.10 1017,3 1013,2 1015,1 -2,9 70,0 -7,5 -3,7 4,1 61,4 -6,6 1,3 29,5 1,0
13.3.10 1019,8 1016,6 1018,1 0,5 68,3 -4,7 -2,4 8,8 61,8 -0,7 2,1 27,7 0,4
14.3.10 1019,6 1014,8 1017,3 1,1 74,8 -2,8 -3,2 11,3 62,9 0,3 2,1 31,6 1,1
15.3.10 1020,1 1015,2 1018,0 -0,3 68,0 -5,7 -2,9 8,3 68,0 -4,6 4,5 32,7 5,1
16.3.10 1026,2 1015,0 1020,4 2,3 68,1 -3,5 0,8 5,8 72,4 0,1 6,7 30,2 4,4
17.3.10 1026,3 1024,0 1025,3 3,7 58,4 -4,1 3,3 2,5 72,4 -0,2 10,8 25,2 0,0
18.3.10 1025,9 1021,4 1024,1 5,5 56,2 -3,8 5,2 1,8 72,4 -3,8 15,9 18,3 0,0
19.3.10 1021,5 1018,0 1020,2 8,8 51,0 -1,2 8,2 3,2 72,4 1,5 16,1 25,2 0,0
20.3.10 1018,0 1013,5 1014,9 9,1 73,1 4,4 8,8 3,0 75,1 4,2 12,5 31,6 2,7
21.3.10 1020,3 1011,3 1014,3 10,8 80,7 7,5 10,1 4,7 78,2 8,2 14,3 29,1 3,1
22.3.10 1023,3 1020,5 1021,8 8,1 74,2 3,5 8,0 0,6 78,7 2,3 13,9 12,9 0,5
23.3.10 1021,3 1019,2 1020,0 7,2 67,8 1,0 7,1 1,4 78,7 0,5 15,4 24,1 0,0
24.3.10 1019,5 1013,9 1016,6 8,4 58,6 -0,6 8,2 2,6 78,7 -1,6 17,5 28,0 0,0
25.3.10 1014,3 1010,3 1012,0 11,5 53,9 1,4 11,3 2,1 78,7 1,6 20,3 28,2 0,0
26.3.10 1011,1 1002,1 1008,0 12,3 55,2 1,7 11,1 5,1 87,9 5,3 21,6 46,4 9,2
27.3.10 1008,9 1006,8 1007,9 6,4 80,6 3,1 5,7 4,5 90,6 4,5 10,4 25,2 2,7
28.3.10 1011,9 1008,2 1010,6 6,3 78,4 2,6 5,2 5,4 93,0 3,7 11,1 32,2 2,4
29.3.10 1010,7 1006,8 1008,3 8,9 81,1 5,7 7,9 5,4 94,8 6,4 12,5 31,3 1,8
30.3.10 1006,9 995,6 1000,5 11,1 67,4 4,1 10,7 2,6 97,1 3,4 18,7 32,7 2,3
31.3.10 1006,0 998,4 1003,2 6,8 67,3 0,8 5,3 6,7 97,6 3,1 11,5 39,6 0,5
1.4.10 1016,1 1006,2 1010,6 3,9 58,6 -4,2 2,7 4,9 97,6 -1,6 9,1 31,6 0,0
2.4.10 1017,9 1014,8 1016,5 4,3 50,4 -6,9 3,9 2,2 97,6 -3,7 11,9 21,1 0,0
3.4.10 1015,1 1011,1 1013,4 6,2 56,6 -2,4 5,8 2,4 97,6 -1,3 14,8 29,8 0,0
4.4.10 1016,1 1009,6 1012,3 8,5 58,4 0,6 7,3 5,4 97,8 5,5 13,2 33,8 0,2
5.4.10 1027,2 1016,4 1022,7 6,3 61,8 -0,9 5,3 5,1 97,8 0,5 11,5 24,4 0,0
6.4.10 1027,5 1023,3 1025,8 5,4 57,6 -4,1 5,4 0,8 97,8 -3,2 15,6 20,5 0,0
7.4.10 1023,4 1019,7 1021,6 7,5 46,6 -5,3 7,3 2,1 97,8 -0,9 16,2 28,0 0,0
8.4.10 1026,0 1020,6 1022,3 11,4 42,8 -2,7 11,3 1,9 97,8 1,2 22,4 19,8 0,0
9.4.10 1029,3 1026,0 1028,2 10,0 56,6 0,9 9,3 4,4 97,8 5,1 15,6 24,4 0,0
10.4.10 1028,7 1024,0 1026,5 5,1 63,3 -1,4 4,3 4,2 98,6 1,9 8,8 25,5 0,8
11.4.10 1024,0 1020,4 1021,5 3,5 79,0 0,1 2,2 5,0 103,7 0,9 9,3 33,1 5,1
12.4.10 1020,3 1016,5 1017,3 3,4 91,1 2,1 2,9 3,5 114,9 0,4 8,1 31,6 11,2
13.4.10 1016,6 1013,8 1015,0 7,7 82,6 4,7 7,4 2,3 115,7 4,1 12,7 23,0 0,8
14.4.10 1015,5 1013,5 1014,2 5,4 78,2 1,7 4,7 3,9 115,7 2,5 11,1 25,2 0,0
15.4.10 1017,9 1014,6 1015,8 3,9 93,1 2,8 3,6 2,8 117,9 3,2 4,3 16,5 2,2
16.4.10 1021,2 1017,6 1019,0 6,8 71,7 1,3 6,5 3,0 117,9 0,7 16,5 21,2 0,0
17.4.10 1022,4 1018,9 1021,2 7,6 55,2 -3,0 7,6 1,1 117,9 -3,4 19,5 15,2 0,0
18.4.10 1019,5 1011,3 1014,9 9,7 47,7 -3,6 9,5 1,4 117,9 -1,4 20,1 25,5 0,0
19.4.10 1015,3 1011,8 1013,3 10,7 53,2 -0,2 10,4 2,8 117,9 -0,2 20,9 19,0 0,0
20.4.10 1015,7 1012,4 1013,9 9,8 53,4 -1,2 9,1 3,7 117,9 1,7 17,1 30,2 0,0
21.4.10 1016,8 1013,6 1015,0 5,6 53,2 -3,4 3,8 6,7 118,1 0,5 9,4 39,6 0,2
22.4.10 1018,1 1014,6 1016,6 5,0 44,1 -8,4 4,9 1,3 118,1 -4,9 14,5 15,8 0,0
23.4.10 1017,3 1014,7 1015,6 7,3 40,3 -7,5 7,2 1,4 118,1 -4,2 19,1 22,6 0,0
24.4.10 1023,0 1017,3 1020,0 10,6 43,0 -3,6 10,5 1,9 118,1 -1,9 21,7 18,7 0,0
25.4.10 1025,2 1022,6 1023,8 13,5 39,5 -1,8 13,3 2,4 118,1 2,8 21,3 25,9 0,0
26.4.10 1024,7 1020,6 1022,6 12,7 48,6 1,7 11,9 4,7 120,4 8,1 18,6 29,9 2,3
27.4.10 1027,7 1024,6 1026,0 10,8 59,2 2,3 10,5 2,5 120,4 3,2 18,7 19,8 0,0
28.4.10 1028,0 1023,1 1026,2 11,9 50,5 -0,5 11,8 1,2 120,4 -0,1 22,0 18,3 0,0
29.4.10 1023,1 1012,8 1018,0 15,7 44,0 0,9 15,3 3,5 120,4 5,1 25,8 42,2 0,0
30.4.10 1012,8 1010,7 1011,6 17,6 43,4 4,4 16,8 6,1 120,4 11,5 25,0 36,0 0,0
1.5.10 1012,5 1010,8 1011,7 13,6 70,2 7,8 13,3 2,9 121,8 10,8 19,8 24,1 1,4
2.5.10 1012,3 1009,2 1011,0 11,2 83,9 8,5 11,2 0,5 125,9 9,8 13,5 11,1 4,1
3.5.10 1014,5 1008,6 1010,5 10,7 80,1 7,1 10,6 2,3 129,7 8,1 15,4 23,0 3,8
4.5.10 1017,3 1014,2 1016,0 8,2 85,5 5,8 7,5 4,1 131,5 5,1 11,2 26,6 1,8
5.5.10 1017,8 1009,5 1015,1 6,2 71,4 1,2 4,3 8,0 131,5 1,7 10,4 30,2 0,0
6.5.10 1009,2 999,9 1002,7 6,6 93,8 5,7 6,4 2,3 139,1 5,1 8,5 18,0 7,6
7.5.10 1009,5 1002,9 1006,1 5,9 80,5 2,7 5,2 3,7 139,1 3,9 9,9 29,5 0,0
8.5.10 1011,7 1009,5 1010,5 8,6 63,2 1,0 8,5 1,6 139,1 0,4 15,3 17,8 0,0
9.5.10 1011,8 1007,5 1009,9 9,3 73,2 4,2 9,3 1,0 149,3 2,3 17,7 35,6 10,2
10.5.10 1009,4 1006,3 1007,7 9,9 86,5 7,6 9,8 1,5 150,5 7,8 14,4 17,2 1,2
11.5.10 1009,5 1003,7 1007,7 11,5 83,4 8,5 11,2 2,6 151,8 7,4 17,9 23,4 1,3
12.5.10 1010,1 1002,6 1007,7 10,9 76,6 6,5 10,3 4,0 178,1 6,1 14,1 33,1 26,3
13.5.10 1011,0 1009,6 1010,2 7,7 79,3 4,1 7,2 3,7 178,2 3,6 11,4 22,6 0,1
14.5.10 1010,8 1009,4 1010,1 6,0 87,6 4,1 5,7 3,1 184,8 5,1 7,8 15,4 6,6
15.5.10 1011,2 1008,4 1009,7 5,2 87,9 3,2 4,6 3,7 187,1 3,8 7,2 23,0 2,3
16.5.10 1016,9 1010,2 1012,9 8,0 68,5 1,7 6,9 5,0 187,1 2,5 14,5 27,3 0,0
17.5.10 1021,0 1016,8 1018,8 10,0 57,0 0,9 9,5 3,5 187,1 0,5 16,8 25,9 0,0
18.5.10 1023,9 1020,9 1022,4 9,2 62,6 2,1 8,1 5,8 188,7 6,7 12,1 27,2 1,6
19.5.10 1022,8 1020,4 1021,2 6,3 89,0 4,5 5,3 4,8 197,0 4,8 7,8 22,6 8,3
20.5.10 1027,3 1022,2 1024,7 10,1 94,3 9,2 10,1 2,1 200,3 7,2 12,1 14,4 3,3
21.5.10 1027,5 1026,1 1026,9 12,8 76,7 8,3 12,6 2,6 200,5 9,1 17,4 17,2 0,2
22.5.10 1026,8 1021,8 1024,2 15,7 62,0 6,5 15,5 2,5 200,5 7,5 24,3 20,8 0,0
23.5.10 1023,2 1019,0 1021,5 16,7 61,0 8,1 16,5 2,7 200,5 11,4 24,0 21,2 0,0
24.5.10 1019,2 1010,0 1014,6 17,0 61,0 8,2 16,3 6,1 201,8 8,4 24,8 39,9 1,3
25.5.10 1012,7 1011,3 1011,9 15,4 63,8 7,7 15,3 2,0 201,8 9,1 23,1 18,7 0,0
26.5.10 1011,6 1007,8 1010,1 11,4 84,7 8,8 11,3 0,6 208,2 9,2 13,7 15,1 6,4
27.5.10 1012,8 1006,8 1009,1 13,9 76,8 9,5 13,6 3,3 208,8 9,8 18,5 25,9 0,6
28.5.10 1018,2 1012,1 1013,6 13,9 73,1 8,6 13,4 3,6 211,7 8,7 21,8 40,3 2,9
29.5.10 1020,8 1016,3 1019,0 13,5 62,8 4,6 13,5 0,8 211,9 5,3 21,4 16,2 0,2
30.5.10 1016,4 1006,3 1010,2 12,8 79,2 9,0 12,2 3,6 227,8 10,7 19,8 31,6 15,9
31.5.10 1012,5 1006,4 1009,8 9,3 77,5 5,3 8,0 6,5 232,3 4,9 12,5 30,6 4,5
1.6.10 1013,3 1012,1 1012,8 9,1 93,6 8,1 8,2 5,6 245,8 7,8 10,4 30,9 13,5
2.6.10 1014,7 1011,9 1013,1 9,9 95,6 9,2 8,5 7,0 251,4 8,1 11,2 34,2 5,6
3.6.10 1018,7 1014,3 1016,6 11,8 87,4 9,6 10,6 6,0 258,0 9,4 15,7 31,3 6,6
4.6.10 1022,3 1018,5 1020,2 15,8 60,0 6,7 15,5 3,0 258,0 6,7 23,4 17,2 0,0
5.6.10 1022,9 1018,9 1021,3 18,8 51,9 6,1 18,7 1,7 258,0 5,9 29,0 18,3 0,0
6.6.10 1019,2 1011,4 1015,8 21,3 45,9 6,8 21,2 2,4 258,0 10,8 30,1 29,5 0,0
7.6.10 1013,7 1011,5 1013,1 18,7 58,4 9,1 17,9 6,0 263,0 12,8 23,3 34,9 5,0
8.6.10 1013,7 1009,1 1011,5 18,7 55,2 8,4 18,5 3,0 265,8 9,8 27,5 46,0 2,8
9.6.10 1011,5 1008,8 1010,4 21,7 60,6 12,0 21,6 1,5 266,6 14,6 31,6 33,8 0,8
10.6.10 1010,2 1008,3 1009,4 24,5 55,1 13,1 24,5 1,2 266,6 17,1 33,8 18,0 0,0
11.6.10 1011,9 1007,6 1010,1 23,3 51,5 11,5 22,9 5,6 266,6 18,1 28,8 38,8 0,0
12.6.10 1014,9 1011,1 1012,0 18,3 64,8 11,1 17,9 3,4 266,6 12,8 26,1 34,9 0,0
13.6.10 1017,3 1013,6 1015,7 16,3 53,4 6,1 16,1 3,2 266,6 11,5 22,8 22,6 0,0
14.6.10 1018,7 1013,6 1015,7 13,6 70,8 8,2 13,6 1,3 269,2 10,7 17,5 13,3 2,6
15.6.10 1021,8 1018,6 1020,0 15,3 67,0 8,4 14,9 3,4 269,2 7,8 21,5 30,2 0,0
16.6.10 1022,4 1018,8 1020,2 15,8 51,7 4,5 14,8 7,2 269,2 8,4 22,0 33,1 0,0
17.6.10 1020,4 1014,9 1017,7 16,5 45,7 3,9 16,1 3,9 269,2 10,2 22,4 31,6 0,0
18.6.10 1014,9 1008,9 1011,0 15,0 72,4 9,8 14,9 1,7 280,5 11,8 19,2 26,6 11,3
19.6.10 1009,5 1007,2 1008,0 12,1 58,8 3,4 11,9 3,0 282,4 8,2 16,1 18,3 1,9
20.6.10 1015,9 1008,4 1011,6 11,5 58,9 2,8 11,3 2,6 282,4 4,5 19,1 19,8 0,0
21.6.10 1021,4 1015,9 1018,5 11,8 63,8 4,7 11,4 3,0 282,4 5,7 18,0 21,2 0,0
22.6.10 1024,0 1021,4 1022,6 13,9 56,1 4,1 13,6 3,3 282,4 4,2 22,7 22,3 0,0
23.6.10 1024,1 1021,4 1022,9 15,2 54,2 4,2 15,1 2,0 282,4 4,2 23,8 20,1 0,0
24.6.10 1022,0 1017,9 1019,8 18,7 48,7 5,9 18,6 2,3 282,4 11,3 26,6 21,6 0,0
25.6.10 1018,7 1016,2 1017,2 17,0 64,3 9,3 16,9 1,6 286,9 8,8 25,7 26,6 4,5
26.6.10 1020,1 1017,5 1018,4 19,1 61,8 9,7 19,0 2,2 287,1 11,8 26,8 13,3 0,2
27.6.10 1021,8 1020,2 1021,0 19,3 51,6 7,3 19,3 1,6 287,1 8,1 28,7 20,8 0,0
28.6.10 1021,9 1019,6 1021,0 21,6 44,9 6,9 21,6 1,3 287,1 11,0 30,8 17,2 0,0
29.6.10 1021,0 1018,6 1020,0 23,1 43,8 7,7 23,1 1,9 287,1 12,3 31,4 25,5 0,0
30.6.10 1021,3 1019,8 1020,5 21,9 53,3 11,1 21,9 1,6 287,3 14,7 30,2 16,5 0,2
1.7.10 1020,8 1018,2 1019,4 23,5 48,0 9,9 23,5 1,1 287,3 14,7 31,6 15,4 0,0
2.7.10 1019,9 1018,4 1019,3 24,6 44,3 9,0 24,6 0,8 287,3 14,1 32,5 15,8 0,0
3.7.10 1020,2 1017,7 1019,4 26,8 36,4 9,1 26,8 2,0 287,3 18,7 35,1 25,5 0,0
4.7.10 1020,5 1018,9 1019,6 23,4 53,3 12,8 23,4 1,8 287,3 17,9 31,7 21,2 0,0
5.7.10 1020,4 1018,1 1019,4 21,7 65,6 13,9 21,6 2,2 288,2 16,0 30,8 26,6 0,9
6.7.10 1024,1 1019,4 1021,6 16,9 66,0 9,7 16,3 4,4 290,6 12,0 20,7 29,1 2,4
7.7.10 1025,0 1023,2 1024,2 16,5 52,4 5,0 16,4 1,4 290,6 6,6 24,1 19,0 0,0
8.7.10 1024,7 1022,0 1023,3 21,3 43,3 6,0 21,3 1,5 290,6 11,6 30,5 18,3 0,0
9.7.10 1023,5 1021,3 1022,5 24,1 42,5 8,1 24,1 1,1 290,6 12,8 33,4 20,8 0,0
10.7.10 1023,0 1020,1 1021,9 26,6 38,8 9,7 26,6 1,1 290,6 17,4 34,7 26,6 0,0
11.7.10 1020,8 1018,0 1019,6 27,6 36,4 9,7 27,6 1,3 290,6 19,2 35,4 22,3 0,0
12.7.10 1019,4 1012,7 1016,4 26,7 41,1 10,2 26,6 1,7 290,6 17,1 34,5 35,6 0,0
13.7.10 1017,1 1013,9 1014,9 24,1 54,9 13,2 23,9 3,7 297,1 18,3 30,5 30,8 6,5
14.7.10 1015,0 1009,7 1013,3 24,9 47,8 11,0 24,9 1,1 297,1 14,4 33,6 23,0 0,0
15.7.10 1019,3 1010,8 1016,5 21,9 62,1 13,9 21,7 3,2 303,3 18,5 26,4 30,6 6,2
16.7.10 1020,0 1017,4 1018,8 24,2 54,6 12,7 24,2 1,7 303,3 13,7 34,1 27,7 0,0
17.7.10 1023,7 1017,4 1019,8 21,2 63,3 13,4 21,0 3,4 310,4 13,4 27,7 27,2 7,1
18.7.10 1027,9 1023,2 1026,3 19,5 52,6 8,9 19,3 3,1 310,4 13,5 24,2 21,6 0,0
19.7.10 1027,5 1022,6 1025,4 18,3 51,0 6,2 18,3 1,3 310,4 9,1 25,4 18,0 0,0
20.7.10 1023,3 1014,9 1019,0 20,2 48,3 7,1 20,2 1,2 310,4 10,4 28,6 20,1 0,0
21.7.10 1015,3 1011,8 1013,1 24,4 47,9 10,3 24,4 2,2 310,4 14,1 33,1 32,7 0,0
22.7.10 1017,1 1012,9 1014,8 24,6 50,1 12,5 24,5 2,7 310,5 18,6 33,5 35,2 0,1
23.7.10 1017,8 1015,0 1016,6 18,8 80,9 15,2 18,5 3,0 358,4 14,4 23,2 24,1 47,9
24.7.10 1018,4 1015,3 1016,9 16,1 74,4 10,8 15,3 5,6 385,1 12,9 20,9 26,7 26,7
25.7.10 1018,4 1015,0 1016,6 14,9 52,9 4,4 14,7 2,1 385,1 7,0 22,3 21,2 0,0
26.7.10 1016,0 1013,3 1014,6 14,3 70,5 8,6 14,3 0,6 394,8 9,1 21,5 22,6 9,7
27.7.10 1019,2 1014,2 1016,5 16,5 73,2 11,0 16,4 1,2 398,8 11,8 22,5 15,1 4,0
28.7.10 1019,4 1014,0 1016,8 15,9 79,7 12,2 15,6 2,9 400,7 12,1 21,0 27,3 1,9
29.7.10 1014,6 1010,4 1011,8 16,0 77,5 11,7 15,9 1,7 406,7 13,4 20,8 19,4 6,0
30.7.10 1019,1 1012,6 1015,5 15,7 68,6 9,3 15,6 1,5 406,7 12,1 22,1 18,7 0,0
31.7.10 1019,9 1017,7 1019,0 17,1 59,7 7,6 17,0 1,7 406,7 7,3 24,8 23,0 0,0
1.8.10 1018,8 1015,9 1017,7 20,2 54,3 9,0 20,0 2,8 406,7 11,1 29,5 35,2 0,0
2.8.10 1017,6 1015,2 1016,4 19,4 74,6 14,3 19,4 1,0 434,7 16,1 26,1 25,2 28,0
3.8.10 1016,8 1013,5 1014,8 15,8 88,9 13,8 15,7 1,6 467,4 12,1 20,4 16,5 32,7
4.8.10 1016,7 1010,8 1014,0 15,9 68,7 8,9 15,8 1,2 467,7 9,1 22,7 31,3 0,3
5.8.10 1011,8 1008,8 1009,8 16,7 66,3 9,7 16,3 2,7 469,2 11,7 21,6 30,2 1,5
6.8.10 1018,1 1011,9 1014,4 13,9 95,6 13,1 13,3 4,6 503,8 12,9 15,0 21,9 34,6
7.8.10 1018,9 1017,4 1018,1 16,0 79,2 11,9 15,7 2,8 528,3 12,2 23,1 19,0 24,5
8.8.10 1018,9 1016,7 1017,8 17,2 65,1 10,0 17,1 2,1 529,5 11,0 23,4 31,6 1,2
9.8.10 1019,7 1017,7 1018,5 16,5 76,7 11,9 16,4 1,3 533,5 13,5 22,8 17,2 4,0
10.8.10 1019,2 1016,8 1018,4 17,7 60,9 8,0 17,6 1,6 533,5 8,9 25,6 37,0 0,0
11.8.10 1017,7 1016,3 1016,9 17,3 68,7 11,0 17,2 1,4 533,5 11,2 24,2 29,5 0,0
12.8.10 1017,0 1013,6 1014,9 16,1 87,3 13,9 16,1 0,6 554,5 12,5 21,6 18,3 21,0
13.8.10 1018,8 1013,7 1017,0 17,5 81,9 14,1 17,4 1,3 572,2 12,9 22,0 21,4 17,7
14.8.10 1019,2 1016,6 1018,0 15,2 84,0 12,3 15,0 2,8 572,5 12,9 18,9 18,7 0,3
15.8.10 1016,4 1011,3 1012,9 16,9 81,4 13,4 16,8 2,2 578,8 13,8 23,7 28,4 6,3
16.8.10 1014,5 1012,2 1013,1 14,9 72,7 9,7 14,3 3,8 581,5 12,5 19,2 38,1 2,7
17.8.10 1012,9 1009,1 1010,6 12,9 91,4 11,5 12,1 5,1 596,4 11,9 15,4 36,0 14,9
18.8.10 1012,3 1010,7 1011,2 13,8 86,5 11,5 13,4 3,2 596,9 11,2 18,0 27,7 0,5
19.8.10 1021,6 1012,2 1016,5 16,3 68,8 9,5 16,0 3,3 596,9 11,1 21,5 33,8 0,0
20.8.10 1024,7 1021,8 1023,0 17,2 58,3 6,9 17,2 0,6 596,9 6,2 28,4 20,5 0,0
21.8.10 1026,3 1024,0 1025,1 20,7 57,6 10,3 20,7 2,1 596,9 10,5 30,2 27,6 0,0
22.8.10 1024,4 1015,4 1020,3 22,3 60,0 12,7 22,2 2,3 599,6 13,0 31,4 30,6 2,7
23.8.10 1016,2 1007,0 1011,1 19,7 73,7 14,5 19,3 3,9 602,8 14,9 25,2 39,2 3,2
24.8.10 1015,3 1008,3 1010,5 18,5 72,6 13,2 18,0 5,0 607,1 14,2 23,2 37,0 4,3
25.8.10 1018,8 1015,4 1017,9 15,9 55,0 6,0 15,4 4,2 607,1 11,5 22,2 31,6 0,0
26.8.10 1018,4 1011,0 1014,3 17,9 64,6 10,8 17,3 5,4 608,2 11,7 24,2 54,7 1,1
27.8.10 1011,3 1005,0 1006,6 17,6 84,9 15,0 16,9 5,6 634,7 14,8 20,7 32,4 26,5
28.8.10 1017,1 1006,5 1013,3 12,6 77,4 8,4 11,7 5,6 638,4 10,1 16,4 28,8 3,7
29.8.10 1017,6 1010,2 1014,9 11,6 77,1 7,5 11,1 4,2 640,9 8,7 17,0 34,2 2,5
30.8.10 1012,8 1005,6 1008,7 8,8 86,3 6,5 8,0 5,1 657,9 6,5 12,2 34,5 17,0
31.8.10 1020,3 1012,9 1017,6 11,5 76,5 6,7 10,4 6,1 664,5 8,3 17,5 31,3 6,6
1.9.10 1020,3 1017,6 1018,3 10,6 84,9 8,1 10,4 2,1 666,0 6,6 15,8 24,4 1,5
2.9.10 1019,8 1018,4 1019,0 12,1 77,2 7,8 12,0 1,6 666,0 6,9 17,4 19,0 0,0
3.9.10 1021,4 1019,5 1020,4 13,1 73,0 7,7 13,1 1,0 666,0 7,8 19,4 15,8 0,0
4.9.10 1022,4 1018,8 1020,1 12,6 67,0 5,7 12,4 1,7 666,0 6,3 20,2 26,6 0,0
5.9.10 1023,5 1021,9 1022,5 10,9 62,6 2,8 10,7 2,1 666,0 4,1 19,1 23,0 0,0
6.9.10 1023,5 1017,0 1020,8 10,2 62,1 2,1 10,1 1,4 666,0 1,8 17,3 21,2 0,0
7.9.10 1017,1 1010,1 1012,7 11,4 62,4 3,9 10,9 3,6 666,2 5,2 18,5 31,6 0,2
8.9.10 1011,2 1008,1 1009,1 12,4 79,9 8,9 11,4 5,0 666,2 11,2 14,0 45,0 0,0
9.9.10 1019,4 1011,0 1014,5 12,5 90,6 11,0 12,4 1,7 670,4 11,6 14,0 23,0 4,2
10.9.10 1023,4 1019,6 1021,9 14,4 76,6 9,8 14,2 2,0 670,4 10,0 20,4 26,2 0,0
11.9.10 1023,6 1021,4 1022,6 14,1 67,9 6,7 14,1 0,8 670,4 4,6 23,7 22,3 0,0
12.9.10 1022,3 1019,3 1020,9 14,9 65,5 7,3 14,9 0,7 670,4 5,8 23,1 29,5 0,0
13.9.10 1026,4 1019,4 1023,0 12,1 89,9 10,5 11,9 2,3 674,3 8,0 13,6 18,7 3,9
14.9.10 1026,5 1017,5 1022,3 9,8 89,4 8,0 9,3 3,4 677,1 3,9 13,7 34,2 2,8
15.9.10 1017,6 1010,9 1013,0 12,7 82,9 9,8 11,7 6,6 680,6 11,1 13,8 42,1 3,5
16.9.10 1012,9 1009,4 1011,5 11,9 74,7 7,3 11,2 4,4 681,1 10,1 15,3 31,6 0,5
17.9.10 1016,3 1010,7 1013,0 11,1 72,6 6,0 10,4 4,3 681,3 7,5 15,1 32,7 0,2
18.9.10 1018,4 1016,2 1017,3 8,8 71,2 3,0 8,6 1,9 681,3 2,5 16,8 25,5 0,0
19.9.10 1019,7 1018,0 1018,9 8,4 67,0 1,5 8,2 1,8 681,3 0,8 17,9 31,6 0,0
20.9.10 1020,2 1018,0 1019,1 9,5 70,0 3,5 9,4 1,2 681,3 1,7 18,8 25,5 0,0
21.9.10 1023,7 1019,0 1021,4 12,8 66,5 5,1 12,8 0,5 681,3 2,3 23,7 12,2 0,0
22.9.10 1024,3 1020,9 1023,1 13,1 66,0 5,4 13,0 0,7 681,3 2,8 23,1 20,1 0,0
23.9.10 1021,2 1012,1 1017,0 14,7 66,0 7,1 14,6 0,8 681,3 6,1 23,3 21,6 0,0
24.9.10 1012,1 1002,8 1006,7 15,9 74,3 10,8 15,8 1,7 682,3 11,8 22,9 29,1 1,0
25.9.10 1006,2 1002,9 1003,8 11,1 91,1 9,7 10,8 2,4 697,0 7,2 13,2 25,9 14,7
26.9.10 1010,0 1004,9 1006,8 8,2 84,8 5,6 7,4 4,7 698,0 6,3 12,0 25,2 1,0
27.9.10 1010,4 1008,8 1009,7 7,7 87,1 5,6 6,1 6,6 705,2 5,9 9,3 28,4 7,2
28.9.10 1017,1 1010,1 1013,2 8,6 96,0 8,0 8,1 2,9 733,1 6,8 10,5 26,2 27,9
29.9.10 1020,2 1017,2 1018,9 8,1 87,5 6,1 8,0 1,4 733,4 6,5 10,4 15,8 0,3
30.9.10 1020,3 1017,0 1018,5 8,4 76,3 4,0 8,4 0,3 733,4 5,5 12,8 7,2 0,0
1.10.10 1017,1 1015,4 1016,2 8,1 81,8 5,1 8,1 0,8 733,4 5,7 10,4 19,0 0,0
2.10.10 1017,8 1016,3 1016,9 10,6 86,8 8,4 10,6 0,7 733,9 8,3 13,0 19,8 0,5
3.10.10 1017,3 1012,1 1015,2 12,0 81,9 8,8 11,1 4,7 733,9 10,1 17,8 35,6 0,0
4.10.10 1012,1 1007,4 1009,8 9,9 83,5 7,2 8,4 7,1 733,9 8,6 11,7 38,5 0,0
5.10.10 1014,3 1007,6 1010,3 11,6 85,5 9,2 11,3 2,1 735,1 9,9 14,5 35,6 1,2
6.10.10 1020,0 1014,0 1016,5 11,7 88,5 9,8 11,5 1,6 735,1 10,7 13,5 20,5 0,0
7.10.10 1023,6 1019,6 1022,2 11,2 87,5 9,1 11,0 1,8 735,1 10,5 12,1 22,3 0,0
8.10.10 1023,5 1021,9 1022,7 12,2 65,4 5,4 11,6 3,7 735,1 7,8 16,5 29,1 0,0
9.10.10 1023,0 1019,2 1021,3 10,6 54,2 0,6 9,9 4,2 735,1 5,6 18,2 36,3 0,0
10.10.10 1019,2 1015,1 1016,6 8,5 55,4 -1,9 8,3 1,9 735,1 0,2 17,9 25,5 0,0
11.10.10 1016,9 1014,8 1015,9 6,3 64,8 -1,1 6,1 1,4 735,1 -1,8 19,7 20,8 0,0
12.10.10 1017,8 1015,8 1016,8 2,9 84,1 0,3 2,7 2,1 735,1 -1,8 12,1 16,9 0,0
13.10.10 1017,8 1015,7 1016,7 3,8 83,1 1,0 3,6 2,3 735,1 -0,9 12,1 21,9 0,0
14.10.10 1016,1 1014,1 1015,0 3,7 85,3 1,2 3,7 0,8 735,1 -0,2 11,8 14,4 0,0
15.10.10 1015,2 1010,7 1013,0 5,7 90,7 4,2 5,6 0,9 736,9 0,9 9,7 13,6 1,8
16.10.10 1013,6 1008,4 1009,9 6,2 93,2 5,1 6,2 0,2 746,4 5,2 7,7 11,8 9,5
17.10.10 1020,1 1013,8 1017,1 5,2 94,3 4,3 4,8 2,9 751,4 1,2 6,7 19,8 5,0
18.10.10 1021,0 1017,4 1019,5 2,6 82,4 -0,6 2,6 0,2 751,4 -1,8 11,7 10,0 0,0
19.10.10 1017,5 1005,1 1010,5 2,7 87,5 0,8 1,9 3,8 753,3 -2,5 4,5 33,8 1,9
20.10.10 1013,8 1003,5 1006,9 3,5 91,4 2,2 3,0 3,1 761,1 0,5 6,1 26,2 7,8
21.10.10 1023,5 1013,8 1020,3 2,4 75,8 -1,6 0,7 7,0 761,1 0,5 6,7 34,5 0,0
22.10.10 1023,0 1019,8 1021,1 2,5 67,7 -3,1 2,1 2,3 761,1 -1,9 8,5 34,2 0,0
23.10.10 1019,8 1007,4 1013,5 3,2 80,1 -0,2 2,2 3,5 763,6 -3,7 12,5 37,8 2,5
24.10.10 1012,8 1006,2 1008,7 6,0 79,9 2,7 4,6 5,8 765,0 -0,5 11,2 42,8 1,4
25.10.10 1023,9 1012,9 1018,0 2,0 83,8 -0,6 1,9 1,2 765,0 -1,6 5,7 18,0 0,0
26.10.10 1027,9 1024,0 1026,0 1,9 84,0 -0,7 1,8 1,3 765,3 -3,6 10,2 15,4 0,3
27.10.10 1027,9 1023,5 1025,9 3,2 75,0 -1,2 2,8 1,7 765,3 -2,8 9,8 27,0 0,0
28.10.10 1023,5 1020,8 1021,8 6,7 59,2 -1,5 6,4 2,0 765,3 2,2 14,2 30,6 0,0
29.10.10 1021,8 1011,5 1017,1 6,4 68,8 0,5 6,4 0,6 765,3 -0,9 14,3 24,1 0,0
30.10.10 1011,5 1008,4 1009,6 7,7 64,8 1,2 7,2 3,7 765,3 2,7 14,2 25,5 0,0
31.10.10 1009,1 1004,8 1006,4 6,4 72,9 1,7 5,9 2,6 765,3 3,5 12,5 25,9 0,0
1.11.10 1012,2 1005,8 1008,5 9,9 73,0 4,9 9,8 1,0 765,3 5,1 18,6 19,4 0,0
2.11.10 1017,6 1012,2 1015,1 5,9 90,2 4,3 5,3 2,9 765,3 4,8 10,5 30,9 0,0
3.11.10 1019,4 1015,4 1016,8 9,2 83,3 6,4 7,8 6,8 765,3 6,8 10,8 42,8 0,0
4.11.10 1023,5 1019,1 1021,1 12,4 82,8 9,4 10,3 9,0 766,3 10,7 13,9 38,1 1,0
5.11.10 1023,1 1020,3 1022,2 12,0 70,9 6,8 9,6 10,4 766,3 10,5 13,1 40,6 0,0
6.11.10 1020,2 1011,2 1014,2 9,3 87,1 7,2 8,2 4,8 773,8 6,3 11,1 33,4 7,5
7.11.10 1011,1 998,0 1003,3 4,1 95,6 3,4 3,9 1,3 790,0 2,3 6,4 19,0 16,2
8.11.10 998,0 982,6 989,6 2,2 91,1 0,9 2,2 0,2 794,2 0,4 4,8 11,1 4,2
9.11.10 986,2 981,8 983,8 3,7 84,4 1,2 3,5 1,0 794,2 1,3 9,2 33,8 0,0
10.11.10 999,7 986,0 992,1 3,6 88,9 1,8 3,3 1,6 798,2 -0,4 8,7 32,6 4,0
11.11.10 1010,4 996,0 1005,5 3,5 79,3 0,1 1,1 11,5 804,5 1,8 6,5 66,6 6,3
12.11.10 1001,1 991,8 997,4 7,3 86,0 5,1 5,1 9,7 816,9 3,1 9,9 65,8 12,4
13.11.10 1004,4 998,7 1001,7 12,5 73,5 7,7 10,2 10,9 821,9 9,7 13,8 48,2 5,0
14.11.10 1008,1 1003,0 1004,7 12,1 67,0 5,7 11,1 5,5 821,9 7,7 17,4 35,6 0,0
15.11.10 1014,2 1008,0 1011,6 9,1 81,7 6,0 8,2 3,8 831,4 4,6 12,9 29,5 9,5
16.11.10 1017,1 1014,3 1015,8 2,2 94,0 1,3 0,7 6,3 854,6 1,1 4,4 31,6 23,2
17.11.10 1014,0 1008,8 1009,2 2,1 96,0 1,5 1,9 1,3 855,2 1,4 3,1 10,0 0,6
18.11.10 1013,3 1007,9 1009,4 3,1 95,2 2,3 3,0 0,4 861,6 1,8 4,1 15,1 6,4
19.11.10 1017,8 1013,1 1015,7 2,5 91,4 1,2 2,4 0,4 861,9 -0,2 4,7 14,7 0,3
20.11.10 1017,5 1013,6 1016,1 2,5 92,3 1,3 2,4 0,4 862,2 -0,9 4,4 12,9 0,3
21.11.10 1013,5 1005,2 1009,3 1,9 81,9 -0,9 1,1 4,3 862,2 0,3 3,3 29,5 0,0
22.11.10 1005,0 996,7 999,0 1,1 94,4 0,3 0,9 1,9 869,8 -0,2 2,9 18,3 7,6
23.11.10 1001,1 997,2 999,6 0,1 91,4 -1,1 -0,8 3,0 873,5 -0,5 0,5 41,7 3,7
24.11.10 1005,0 999,8 1002,5 0,2 90,2 -1,2 -0,6 3,4 881,7 -1,1 1,8 30,6 8,2
25.11.10 1005,3 999,8 1003,3 -0,8 85,8 -2,9 -0,8 0,4 882,1 -4,1 2,5 16,5 0,4
26.11.10 1003,9 998,8 1001,2 -1,3 86,3 -3,3 -1,4 1,0 883,8 -3,4 0,1 14,4 1,7
27.11.10 1006,1 1003,8 1004,9 -5,1 77,4 -8,5 -5,1 0,2 883,8 -8,3 0,1 13,3 0,0
28.11.10 1006,4 1002,2 1005,1 -4,3 74,3 -8,1 -4,4 1,1 883,8 -7,2 0,1 20,1 0,0
29.11.10 1009,1 1000,5 1003,4 -4,6 80,0 -7,5 -4,9 2,4 887,1 -5,6 -2,5 20,8 3,3
30.11.10 1012,7 1009,4 1011,1 -6,1 74,9 -9,8 -6,5 1,8 887,1 -7,6 -4,3 26,2 0,0
1.12.10 1009,3 998,7 1003,0 -9,9 71,3 -14,1 -12,3 7,2 887,1 -13,2 -7,7 29,1 0,0
2.12.10 1008,1 1000,0 1004,7 -11,4 70,0 -15,8 -11,5 2,6 887,1 -14,1 -6,9 15,8 0,0
3.12.10 1013,1 1007,4 1008,9 -11,7 64,5 -17,1 -11,7 0,2 887,1 -16,9 -2,1 11,8 0,0
4.12.10 1018,6 1013,1 1016,9 -9,4 67,7 -14,3 -10,2 2,9 887,1 -17,0 -4,2 35,6 0,0
5.12.10 1016,7 1002,8 1008,6 -4,3 64,8 -10,0 -5,3 3,9 887,6 -7,5 -0,3 36,7 0,5
6.12.10 1003,0 999,7 1001,1 -1,0 84,9 -3,1 -1,0 0,5 887,8 -2,1 -0,1 16,8 0,2
7.12.10 1003,7 999,9 1001,9 -1,4 83,6 -3,7 -1,4 0,2 889,4 -2,6 0,2 6,4 1,6
8.12.10 1003,8 999,8 1002,2 0,5 94,3 -0,3 0,3 1,0 903,7 -4,1 1,8 21,6 14,3
9.12.10 1018,7 1001,6 1013,1 -3,8 82,6 -6,3 -6,4 7,7 906,7 -5,2 -1,3 34,5 3,0
10.12.10 1025,6 1017,6 1022,4 -3,1 73,1 -7,4 -4,7 5,8 906,7 -4,9 2,5 26,2 0,0
11.12.10 1021,8 1010,3 1014,1 -0,1 91,0 -1,3 -2,8 8,5 906,7 -2,6 1,4 30,2 0,0
12.12.10 1014,0 1006,7 1009,5 -0,4 88,9 -2,0 -2,1 5,4 908,7 -4,9 1,0 28,8 2,0
13.12.10 1019,6 1014,1 1017,6 -7,2 70,8 -11,7 -7,2 0,0 914,2 -8,4 -3,5 0,0 5,5
14.12.10 1021,2 1017,5 1019,4 -7,1 76,4 -10,5 -7,8 2,5 917,1 -8,6 -5,2 21,9 2,9
15.12.10 1020,8 1017,9 1018,9 -7,8 79,4 -10,7 -9,7 6,5 927,8 -8,6 -6,9 21,6 10,7
16.12.10 1018,4 997,4 1010,1 -8,0 75,1 -11,6 -10,4 6,2 927,8 -9,3 -6,9 43,9 0,0
17.12.10 997,5 990,8 993,6 -6,5 72,9 -10,6 -6,9 2,1 927,8 -7,9 -4,3 32,4 0,0
18.12.10 1003,1 997,6 1000,0 -8,6 64,9 -14,1 -8,9 1,5 927,8 -14,1 -4,3 25,5 0,0
19.12.10 1002,7 993,7 998,5 -5,4 73,5 -9,3 -6,8 4,4 927,8 -11,1 -0,7 37,8 0,0
20.12.10 1007,9 992,8 1000,7 -2,0 74,9 -5,9 -4,3 6,7 927,8 -9,5 2,4 59,4 0,0
21.12.10 1008,2 1004,7 1006,0 -2,7 84,0 -5,0 -2,9 1,6 928,0 -10,3 1,5 16,5 0,2
22.12.10 1006,5 1002,9 1004,3 0,3 87,6 -1,5 0,1 1,9 928,5 -0,5 0,8 23,4 0,5
23.12.10 1003,0 997,4 999,5 0,2 84,0 -2,1 -0,2 2,4 928,5 -1,6 2,7 21,6 0,0
24.12.10 1003,8 997,1 999,0 -3,2 91,2 -4,4 -3,7 2,7 930,9 -5,8 -1,6 21,3 2,4
25.12.10 1020,1 1004,0 1012,4 -7,4 78,7 -10,4 -8,1 4,8 934,9 -10,8 -0,2 20,1 4,0
26.12.10 1022,8 1020,0 1021,6 -11,5 69,4 -16,0 -11,6 1,4 934,9 -15,9 -7,9 16,9 0,0
27.12.10 1021,7 1019,7 1020,6 -6,7 79,8 -9,5 -7,2 3,3 934,9 -9,3 -4,6 19,0 0,0
28.12.10 1022,9 1018,1 1019,9 -7,4 72,3 -11,5 -7,6 1,6 934,9 -16,9 0,5 19,8 0,0
29.12.10 1023,5 1022,1 1022,8 -13,2 62,5 -18,9 -13,2 1,1 934,9 -18,3 -5,0 14,4 0,0
30.12.10 1023,9 1021,5 1022,7 -11,9 58,4 -18,6 -11,9 0,6 934,9 -20,2 0,5 12,9 0,0
31.12.10 1022,5 1021,0 1021,7 -6,4 79,8 -9,3 -6,5 1,5 934,9 -7,9 -4,8 14,0 0,0